sensor_id;sensor_type;location;lat;lon;timestamp;pressure;altitude;pressure_sealevel;temperature;humidity
32759;BME280;19125;52.360;9.974;2023-04-25T00:02:04;87310.56;;;-145.17;57.89
32759;BME280;19125;52.360;9.974;2023-04-25T00:04:30;87294.69;;;-145.17;58.38
32759;BME280;19125;52.360;9.974;2023-04-25T00:06:58;87350.28;;;-145.17;58.08
32759;BME280;19125;52.360;9.974;2023-04-25T00:09:27;87338.38;;;-145.17;58.58
32759;BME280;19125;52.360;9.974;2023-04-25T00:11:52;87346.31;;;-145.17;58.44
32759;BME280;19125;52.360;9.974;2023-04-25T00:14:17;87352.25;;;-145.17;58.51
32759;BME280;19125;52.360;9.974;2023-04-25T00:16:43;87397.91;;;-145.17;59.00
32759;BME280;19125;52.360;9.974;2023-04-25T00:19:08;87413.78;;;-145.17;59.21
32759;BME280;19125;52.360;9.974;2023-04-25T00:21:34;87382.03;;;-145.17;59.46
32759;BME280;19125;52.360;9.974;2023-04-25T00:24:00;87382.03;;;-145.17;58.93
32759;BME280;19125;52.360;9.974;2023-04-25T00:26:25;87380.03;;;-145.17;59.03
32759;BME280;19125;52.360;9.974;2023-04-25T00:28:51;87386.00;;;-145.17;59.42
32759;BME280;19125;52.360;9.974;2023-04-25T00:31:16;87409.81;;;-145.17;58.82
32759;BME280;19125;52.360;9.974;2023-04-25T00:33:42;87401.88;;;-145.17;59.19
32759;BME280;19125;52.360;9.974;2023-04-25T00:36:07;87423.72;;;-145.17;59.42
32759;BME280;19125;52.360;9.974;2023-04-25T00:38:33;87399.91;;;-145.17;59.68
32759;BME280;19125;52.360;9.974;2023-04-25T00:40:58;87405.84;;;-145.17;59.55
32759;BME280;19125;52.360;9.974;2023-04-25T00:43:27;87417.75;;;-145.17;58.97
32759;BME280;19125;52.360;9.974;2023-04-25T00:45:53;87409.81;;;-145.17;59.11
32759;BME280;19125;52.360;9.974;2023-04-25T00:48:23;87391.97;;;-145.17;59.42
32759;BME280;19125;52.360;9.974;2023-04-25T00:50:53;87370.13;;;-145.17;59.29
32759;BME280;19125;52.360;9.974;2023-04-25T00:53:20;87409.81;;;-145.17;59.14
32759;BME280;19125;52.360;9.974;2023-04-25T00:55:46;87421.72;;;-145.17;59.21
32759;BME280;19125;52.360;9.974;2023-04-25T00:58:11;87358.22;;;-145.17;59.10
32759;BME280;19125;52.360;9.974;2023-04-25T01:00:37;87401.88;;;-145.17;59.35
32759;BME280;19125;52.360;9.974;2023-04-25T01:03:03;87346.31;;;-145.17;58.55
32759;BME280;19125;52.360;9.974;2023-04-25T01:05:29;87360.19;;;-145.17;58.62
32759;BME280;19125;52.360;9.974;2023-04-25T01:07:54;87364.16;;;-145.17;59.05
32759;BME280;19125;52.360;9.974;2023-04-25T01:10:20;87405.84;;;-145.17;58.56
32759;BME280;19125;52.360;9.974;2023-04-25T01:12:47;87358.22;;;-145.17;58.58
32759;BME280;19125;52.360;9.974;2023-04-25T01:15:12;87338.38;;;-145.17;58.14
32759;BME280;19125;52.360;9.974;2023-04-25T01:17:38;87320.50;;;-145.17;58.22
32759;BME280;19125;52.360;9.974;2023-04-25T01:20:05;87324.47;;;-145.17;58.30
32759;BME280;19125;52.360;9.974;2023-04-25T01:22:31;87334.41;;;-145.17;58.12
32759;BME280;19125;52.360;9.974;2023-04-25T01:24:57;87346.31;;;-145.17;58.18
32759;BME280;19125;52.360;9.974;2023-04-25T01:27:23;87328.44;;;-145.17;58.67
32759;BME280;19125;52.360;9.974;2023-04-25T01:29:49;87344.31;;;-145.17;58.34
32759;BME280;19125;52.360;9.974;2023-04-25T01:32:15;87328.44;;;-145.17;58.36
32759;BME280;19125;52.360;9.974;2023-04-25T01:34:41;87358.22;;;-145.17;58.12
32759;BME280;19125;52.360;9.974;2023-04-25T01:37:06;87314.53;;;-145.17;58.71
32759;BME280;19125;52.360;9.974;2023-04-25T01:39:32;87346.31;;;-145.17;58.58
32759;BME280;19125;52.360;9.974;2023-04-25T01:41:59;87356.22;;;-145.17;59.07
32759;BME280;19125;52.360;9.974;2023-04-25T01:44:24;87366.16;;;-145.17;59.12
32759;BME280;19125;52.360;9.974;2023-04-25T01:46:50;87403.88;;;-145.17;58.73
32759;BME280;19125;52.360;9.974;2023-04-25T01:49:16;87389.97;;;-145.17;59.04
32759;BME280;19125;52.360;9.974;2023-04-25T01:51:41;87362.19;;;-145.17;58.79
32759;BME280;19125;52.360;9.974;2023-04-25T01:54:08;87397.91;;;-145.17;59.25
32759;BME280;19125;52.360;9.974;2023-04-25T01:56:37;87415.78;;;-145.17;59.50
32759;BME280;19125;52.360;9.974;2023-04-25T01:59:03;87409.81;;;-145.17;59.44
32759;BME280;19125;52.360;9.974;2023-04-25T02:01:29;87421.72;;;-145.17;59.03
32759;BME280;19125;52.360;9.974;2023-04-25T02:03:54;87431.66;;;-145.17;59.52
32759;BME280;19125;52.360;9.974;2023-04-25T02:06:19;87419.75;;;-145.17;59.81
32759;BME280;19125;52.360;9.974;2023-04-25T02:08:45;87415.78;;;-145.17;59.66
32759;BME280;19125;52.360;9.974;2023-04-25T02:11:10;87439.59;;;-145.17;59.52
32759;BME280;19125;52.360;9.974;2023-04-25T02:13:35;87413.78;;;-145.17;59.38
32759;BME280;19125;52.360;9.974;2023-04-25T02:16:01;87413.78;;;-145.17;59.89
32759;BME280;19125;52.360;9.974;2023-04-25T02:18:26;87447.53;;;-145.17;60.01
32759;BME280;19125;52.360;9.974;2023-04-25T02:20:52;87435.63;;;-145.17;59.87
32759;BME280;19125;52.360;9.974;2023-04-25T02:23:17;87429.66;;;-145.17;60.03
32759;BME280;19125;52.360;9.974;2023-04-25T02:25:44;87459.44;;;-145.17;60.17
32759;BME280;19125;52.360;9.974;2023-04-25T02:28:09;87467.38;;;-145.17;60.52
32759;BME280;19125;52.360;9.974;2023-04-25T02:30:35;87489.22;;;-145.17;60.87
32759;BME280;19125;52.360;9.974;2023-04-25T02:33:01;87520.97;;;-145.17;61.01
32759;BME280;19125;52.360;9.974;2023-04-25T02:35:26;87538.84;;;-145.17;61.67
32759;BME280;19125;52.360;9.974;2023-04-25T02:37:52;87572.59;;;-145.17;62.57
32759;BME280;19125;52.360;9.974;2023-04-25T02:40:17;87618.25;;;-145.17;62.92
32759;BME280;19125;52.360;9.974;2023-04-25T02:42:42;87628.19;;;-145.17;63.59
32759;BME280;19125;52.360;9.974;2023-04-25T02:45:08;87614.28;;;-145.17;64.01
32759;BME280;19125;52.360;9.974;2023-04-25T02:47:33;87570.59;;;-145.17;64.47
32759;BME280;19125;52.360;9.974;2023-04-25T02:49:59;87548.78;;;-145.17;64.53
32759;BME280;19125;52.360;9.974;2023-04-25T02:52:24;87526.94;;;-145.17;64.66
32759;BME280;19125;52.360;9.974;2023-04-25T02:54:50;87497.16;;;-145.17;64.88
32759;BME280;19125;52.360;9.974;2023-04-25T02:57:15;87457.47;;;-145.17;64.71
32759;BME280;19125;52.360;9.974;2023-04-25T02:59:41;87513.03;;;-145.17;64.09
32759;BME280;19125;52.360;9.974;2023-04-25T03:02:06;87556.72;;;-145.17;64.06
32759;BME280;19125;52.360;9.974;2023-04-25T03:04:31;87600.38;;;-145.17;63.40
32759;BME280;19125;52.360;9.974;2023-04-25T03:06:58;87594.44;;;-145.17;62.84
32759;BME280;19125;52.360;9.974;2023-04-25T03:09:24;87608.31;;;-145.17;61.68
32759;BME280;19125;52.360;9.974;2023-04-25T03:11:50;87544.81;;;-145.17;61.55
32759;BME280;19125;52.360;9.974;2023-04-25T03:14:15;87534.88;;;-145.17;60.98
32759;BME280;19125;52.360;9.974;2023-04-25T03:16:40;87552.75;;;-145.17;60.96
32759;BME280;19125;52.360;9.974;2023-04-25T03:19:06;87542.81;;;-145.17;60.48
32759;BME280;19125;52.360;9.974;2023-04-25T03:21:32;87544.81;;;-145.17;60.41
32759;BME280;19125;52.360;9.974;2023-04-25T03:23:59;87536.88;;;-145.17;60.78
32759;BME280;19125;52.360;9.974;2023-04-25T03:26:24;87528.91;;;-145.17;60.81
32759;BME280;19125;52.360;9.974;2023-04-25T03:28:50;87600.38;;;-145.17;60.88
32759;BME280;19125;52.360;9.974;2023-04-25T03:31:15;87572.59;;;-145.17;60.98
32759;BME280;19125;52.360;9.974;2023-04-25T03:33:40;87556.72;;;-145.17;61.06
32759;BME280;19125;52.360;9.974;2023-04-25T03:36:06;87564.66;;;-145.17;61.25
32759;BME280;19125;52.360;9.974;2023-04-25T03:38:32;87600.38;;;-145.17;61.33
32759;BME280;19125;52.360;9.974;2023-04-25T03:40:57;87586.50;;;-145.17;61.86
32759;BME280;19125;52.360;9.974;2023-04-25T03:43:22;87600.38;;;-145.17;61.98
32759;BME280;19125;52.360;9.974;2023-04-25T03:45:48;87592.44;;;-145.17;61.73
32759;BME280;19125;52.360;9.974;2023-04-25T03:48:13;87640.09;;;-145.17;62.11
32759;BME280;19125;52.360;9.974;2023-04-25T03:50:38;87582.53;;;-145.17;62.09
32759;BME280;19125;52.360;9.974;2023-04-25T03:53:04;87592.44;;;-145.17;62.33
32759;BME280;19125;52.360;9.974;2023-04-25T03:55:29;87588.47;;;-145.17;62.36
32759;BME280;19125;52.360;9.974;2023-04-25T03:57:57;87608.31;;;-145.17;62.23
32759;BME280;19125;52.360;9.974;2023-04-25T04:00:23;87614.28;;;-145.17;62.19
32759;BME280;19125;52.360;9.974;2023-04-25T04:02:48;87602.38;;;-145.17;62.21
32759;BME280;19125;52.360;9.974;2023-04-25T04:05:14;87648.03;;;-145.17;61.76
32759;BME280;19125;52.360;9.974;2023-04-25T04:07:39;87608.31;;;-145.17;61.87
32759;BME280;19125;52.360;9.974;2023-04-25T04:10:09;87578.56;;;-145.17;61.60
32759;BME280;19125;52.360;9.974;2023-04-25T04:12:35;87556.72;;;-145.17;61.41
32759;BME280;19125;52.360;9.974;2023-04-25T04:15:02;87534.88;;;-145.17;61.36
32759;BME280;19125;52.360;9.974;2023-04-25T04:17:29;87562.66;;;-145.17;61.29
32759;BME280;19125;52.360;9.974;2023-04-25T04:19:54;87574.56;;;-145.17;60.84
32759;BME280;19125;52.360;9.974;2023-04-25T04:22:20;87536.88;;;-145.17;60.69
32759;BME280;19125;52.360;9.974;2023-04-25T04:24:45;87568.63;;;-145.17;60.60
32759;BME280;19125;52.360;9.974;2023-04-25T04:27:11;87548.78;;;-145.17;60.41
32759;BME280;19125;52.360;9.974;2023-04-25T04:29:38;87526.94;;;-145.17;60.31
32759;BME280;19125;52.360;9.974;2023-04-25T04:32:03;87497.16;;;-145.17;59.93
32759;BME280;19125;52.360;9.974;2023-04-25T04:34:28;87509.06;;;-145.17;60.03
32759;BME280;19125;52.360;9.974;2023-04-25T04:36:54;87465.41;;;-145.17;59.79
32759;BME280;19125;52.360;9.974;2023-04-25T04:39:20;87483.28;;;-145.17;59.70
32759;BME280;19125;52.360;9.974;2023-04-25T04:41:45;87469.38;;;-145.17;59.29
32759;BME280;19125;52.360;9.974;2023-04-25T04:44:11;87455.47;;;-145.17;59.00
32759;BME280;19125;52.360;9.974;2023-04-25T04:46:37;87449.53;;;-145.17;58.85
32759;BME280;19125;52.360;9.974;2023-04-25T04:49:10;87413.78;;;-145.17;58.32
32759;BME280;19125;52.360;9.974;2023-04-25T04:51:36;87368.13;;;-145.17;58.14
32759;BME280;19125;52.360;9.974;2023-04-25T04:54:02;87366.16;;;-145.17;57.67
32759;BME280;19125;52.360;9.974;2023-04-25T04:56:29;87397.91;;;-145.17;57.60
32759;BME280;19125;52.360;9.974;2023-04-25T04:58:56;87338.38;;;-145.17;57.28
32759;BME280;19125;52.360;9.974;2023-04-25T05:01:21;87318.50;;;-145.17;57.35
32759;BME280;19125;52.360;9.974;2023-04-25T05:03:47;87330.44;;;-145.17;56.66
32759;BME280;19125;52.360;9.974;2023-04-25T05:06:12;87280.81;;;-145.17;56.12
32759;BME280;19125;52.360;9.974;2023-04-25T05:08:37;87278.81;;;-145.17;55.96
32759;BME280;19125;52.360;9.974;2023-04-25T05:11:03;87276.84;;;-145.17;55.32
32759;BME280;19125;52.360;9.974;2023-04-25T05:13:28;87215.31;;;-145.17;55.17
32759;BME280;19125;52.360;9.974;2023-04-25T05:15:54;87229.19;;;-145.17;54.73
32759;BME280;19125;52.360;9.974;2023-04-25T05:18:19;87227.22;;;-145.17;54.29
32759;BME280;19125;52.360;9.974;2023-04-25T05:20:44;87201.41;;;-145.17;54.21
32759;BME280;19125;52.360;9.974;2023-04-25T05:23:10;87139.88;;;-145.17;54.55
32759;BME280;19125;52.360;9.974;2023-04-25T05:25:35;87167.66;;;-145.17;54.25
32759;BME280;19125;52.360;9.974;2023-04-25T05:28:01;87147.81;;;-145.17;53.70
32759;BME280;19125;52.360;9.974;2023-04-25T05:30:26;87116.06;;;-145.17;53.10
32759;BME280;19125;52.360;9.974;2023-04-25T05:32:51;87131.94;;;-145.17;52.28
32759;BME280;19125;52.360;9.974;2023-04-25T05:35:17;87066.44;;;-145.17;51.76
32759;BME280;19125;52.360;9.974;2023-04-25T05:37:42;87010.84;;;-145.17;51.54
32759;BME280;19125;52.360;9.974;2023-04-25T05:40:08;86985.06;;;-145.17;51.35
32759;BME280;19125;52.360;9.974;2023-04-25T05:42:33;86977.13;;;-145.17;50.65
32759;BME280;19125;52.360;9.974;2023-04-25T05:44:59;86969.19;;;-145.17;49.59
32759;BME280;19125;52.360;9.974;2023-04-25T05:47:24;86858.03;;;-145.17;48.89
32759;BME280;19125;52.360;9.974;2023-04-25T05:49:50;86877.88;;;-145.17;48.33
32759;BME280;19125;52.360;9.974;2023-04-25T05:52:15;86865.97;;;-145.17;47.14
32759;BME280;19125;52.360;9.974;2023-04-25T05:54:40;86824.28;;;-145.17;46.28
32759;BME280;19125;52.360;9.974;2023-04-25T05:57:06;86848.13;;;-145.17;46.30
32759;BME280;19125;52.360;9.974;2023-04-25T05:59:31;86820.31;;;-145.17;45.81
32759;BME280;19125;52.360;9.974;2023-04-25T06:01:57;86842.16;;;-145.17;45.86
32759;BME280;19125;52.360;9.974;2023-04-25T06:04:22;86848.13;;;-145.17;45.97
32759;BME280;19125;52.360;9.974;2023-04-25T06:06:47;86858.03;;;-145.17;45.88
32759;BME280;19125;52.360;9.974;2023-04-25T06:09:13;86848.13;;;-145.17;45.61
32759;BME280;19125;52.360;9.974;2023-04-25T06:11:38;86842.16;;;-145.17;45.20
32759;BME280;19125;52.360;9.974;2023-04-25T06:14:03;86858.03;;;-145.17;45.13
32759;BME280;19125;52.360;9.974;2023-04-25T06:16:29;86852.09;;;-145.17;45.04
32759;BME280;19125;52.360;9.974;2023-04-25T06:18:54;86804.44;;;-145.17;44.21
32759;BME280;19125;52.360;9.974;2023-04-25T06:21:19;86766.75;;;-145.17;43.77
32759;BME280;19125;52.360;9.974;2023-04-25T06:23:45;86792.53;;;-145.17;43.85
32759;BME280;19125;52.360;9.974;2023-04-25T06:26:10;86758.81;;;-145.17;43.09
32759;BME280;19125;52.360;9.974;2023-04-25T06:28:35;86790.56;;;-145.17;42.84
32759;BME280;19125;52.360;9.974;2023-04-25T06:31:01;86782.63;;;-145.17;42.30
32759;BME280;19125;52.360;9.974;2023-04-25T06:33:26;86762.78;;;-145.17;41.98
32759;BME280;19125;52.360;9.974;2023-04-25T06:35:51;86774.69;;;-145.17;41.85
32759;BME280;19125;52.360;9.974;2023-04-25T06:38:17;86776.66;;;-145.17;42.46
32759;BME280;19125;52.360;9.974;2023-04-25T06:40:42;86792.53;;;-145.17;41.61
32759;BME280;19125;52.360;9.974;2023-04-25T06:43:07;86754.84;;;-145.17;41.63
32759;BME280;19125;52.360;9.974;2023-04-25T06:45:33;86754.84;;;-145.17;41.69
32759;BME280;19125;52.360;9.974;2023-04-25T06:47:58;86733.00;;;-145.17;41.10
32759;BME280;19125;52.360;9.974;2023-04-25T06:50:24;86691.31;;;-145.17;40.42
32759;BME280;19125;52.360;9.974;2023-04-25T06:52:49;86673.47;;;-145.17;40.47
32759;BME280;19125;52.360;9.974;2023-04-25T06:55:14;86721.09;;;-145.17;40.39
32759;BME280;19125;52.360;9.974;2023-04-25T06:57:40;86661.56;;;-145.17;39.93
32759;BME280;19125;52.360;9.974;2023-04-25T07:00:05;86663.53;;;-145.17;40.90
32759;BME280;19125;52.360;9.974;2023-04-25T07:02:34;86683.38;;;-145.17;41.31
32759;BME280;19125;52.360;9.974;2023-04-25T07:04:59;86689.34;;;-145.17;41.52
32759;BME280;19125;52.360;9.974;2023-04-25T07:07:25;86651.63;;;-145.17;41.68
32759;BME280;19125;52.360;9.974;2023-04-25T07:09:51;86675.44;;;-145.17;40.57
32759;BME280;19125;52.360;9.974;2023-04-25T07:12:16;86697.28;;;-145.17;39.75
32759;BME280;19125;52.360;9.974;2023-04-25T07:14:41;86653.63;;;-145.17;40.24
32759;BME280;19125;52.360;9.974;2023-04-25T07:17:08;86655.59;;;-145.17;40.12
32759;BME280;19125;52.360;9.974;2023-04-25T07:19:33;86649.66;;;-145.17;40.01
32759;BME280;19125;52.360;9.974;2023-04-25T07:21:59;86651.63;;;-145.17;38.82
32759;BME280;19125;52.360;9.974;2023-04-25T07:24:25;86667.50;;;-145.17;39.34
32759;BME280;19125;52.360;9.974;2023-04-25T07:26:50;86657.59;;;-145.17;39.56
32759;BME280;19125;52.360;9.974;2023-04-25T07:29:16;86675.44;;;-145.17;39.78
32759;BME280;19125;52.360;9.974;2023-04-25T07:31:41;86671.47;;;-145.17;40.38
32759;BME280;19125;52.360;9.974;2023-04-25T07:34:07;86667.50;;;-145.17;39.89
32759;BME280;19125;52.360;9.974;2023-04-25T07:36:32;86675.44;;;-145.17;40.55
32759;BME280;19125;52.360;9.974;2023-04-25T07:38:57;86667.50;;;-145.17;40.37
32759;BME280;19125;52.360;9.974;2023-04-25T07:41:23;86663.53;;;-145.17;40.38
32759;BME280;19125;52.360;9.974;2023-04-25T07:43:48;86744.91;;;-145.17;40.94
32759;BME280;19125;52.360;9.974;2023-04-25T07:46:13;86758.81;;;-145.17;41.57
32759;BME280;19125;52.360;9.974;2023-04-25T07:48:39;86738.94;;;-145.17;41.81
32759;BME280;19125;52.360;9.974;2023-04-25T07:51:04;86707.19;;;-145.17;42.34
32759;BME280;19125;52.360;9.974;2023-04-25T07:53:31;86742.91;;;-145.17;42.38
32759;BME280;19125;52.360;9.974;2023-04-25T07:55:57;86742.91;;;-145.17;41.85
32759;BME280;19125;52.360;9.974;2023-04-25T07:58:22;86734.97;;;-145.17;41.42
32759;BME280;19125;52.360;9.974;2023-04-25T08:00:48;86717.13;;;-145.17;41.35
32759;BME280;19125;52.360;9.974;2023-04-25T08:03:13;86699.25;;;-145.17;40.48
32759;BME280;19125;52.360;9.974;2023-04-25T08:05:39;86699.25;;;-145.17;40.06
32759;BME280;19125;52.360;9.974;2023-04-25T08:08:04;86691.31;;;-145.17;40.26
32759;BME280;19125;52.360;9.974;2023-04-25T08:10:33;86657.59;;;-145.17;40.09
32759;BME280;19125;52.360;9.974;2023-04-25T08:12:59;86635.75;;;-145.17;40.20
32759;BME280;19125;52.360;9.974;2023-04-25T08:15:24;86671.47;;;-145.17;40.31
32759;BME280;19125;52.360;9.974;2023-04-25T08:17:50;86663.53;;;-145.17;39.65
32759;BME280;19125;52.360;9.974;2023-04-25T08:20:16;86653.63;;;-145.17;39.27
32759;BME280;19125;52.360;9.974;2023-04-25T08:22:42;86627.81;;;-145.17;39.38
32759;BME280;19125;52.360;9.974;2023-04-25T08:25:07;86615.91;;;-145.17;38.87
32759;BME280;19125;52.360;9.974;2023-04-25T08:27:34;86629.81;;;-145.17;37.95
32759;BME280;19125;52.360;9.974;2023-04-25T08:30:00;86663.53;;;-145.17;38.21
32759;BME280;19125;52.360;9.974;2023-04-25T08:32:27;86639.72;;;-145.17;37.77
32759;BME280;19125;52.360;9.974;2023-04-25T08:34:52;86627.81;;;-145.17;37.47
32759;BME280;19125;52.360;9.974;2023-04-25T08:37:19;86621.88;;;-145.17;37.68
32759;BME280;19125;52.360;9.974;2023-04-25T08:39:45;86584.16;;;-145.17;37.09
32759;BME280;19125;52.360;9.974;2023-04-25T08:42:12;86588.13;;;-145.17;37.42
32759;BME280;19125;52.360;9.974;2023-04-25T08:44:37;86526.59;;;-145.17;36.39
32759;BME280;19125;52.360;9.974;2023-04-25T08:47:04;86572.25;;;-145.17;36.26
32759;BME280;19125;52.360;9.974;2023-04-25T08:49:32;86598.03;;;-145.17;36.09
32759;BME280;19125;52.360;9.974;2023-04-25T08:52:00;86528.59;;;-145.17;34.79
32759;BME280;19125;52.360;9.974;2023-04-25T08:54:27;86552.41;;;-145.17;35.24
32759;BME280;19125;52.360;9.974;2023-04-25T08:56:55;86582.16;;;-145.17;35.06
32759;BME280;19125;52.360;9.974;2023-04-25T08:59:22;86605.97;;;-145.17;34.96
32759;BME280;19125;52.360;9.974;2023-04-25T09:01:49;86625.81;;;-145.17;36.18
32759;BME280;19125;52.360;9.974;2023-04-25T09:04:15;86600.03;;;-145.17;36.55
32759;BME280;19125;52.360;9.974;2023-04-25T09:06:40;86615.91;;;-145.17;36.46
32759;BME280;19125;52.360;9.974;2023-04-25T09:09:08;86600.03;;;-145.17;36.42
32759;BME280;19125;52.360;9.974;2023-04-25T09:11:35;86663.53;;;-145.17;36.41
32759;BME280;19125;52.360;9.974;2023-04-25T09:16:58;86596.06;;;-145.17;37.08
32759;BME280;19125;52.360;9.974;2023-04-25T09:21:54;86600.03;;;-145.17;37.01
32759;BME280;19125;52.360;9.974;2023-04-25T09:24:34;86607.97;;;-145.17;36.47
32759;BME280;19125;52.360;9.974;2023-04-25T09:26:59;86617.88;;;-145.17;37.20
32759;BME280;19125;52.360;9.974;2023-04-25T09:29:31;86568.28;;;-145.17;36.75
32759;BME280;19125;52.360;9.974;2023-04-25T09:32:15;86554.38;;;-145.17;35.58
32759;BME280;19125;52.360;9.974;2023-04-25T09:34:42;86568.28;;;-145.17;34.63
32759;BME280;19125;52.360;9.974;2023-04-25T09:37:09;86540.50;;;-145.17;34.23
32759;BME280;19125;52.360;9.974;2023-04-25T09:39:36;86480.97;;;-145.17;34.25
32759;BME280;19125;52.360;9.974;2023-04-25T09:42:03;86484.94;;;-145.17;32.67
32759;BME280;19125;52.360;9.974;2023-04-25T09:44:28;86447.22;;;-145.17;32.85
32759;BME280;19125;52.360;9.974;2023-04-25T09:46:54;86409.50;;;-145.17;32.75
32759;BME280;19125;52.360;9.974;2023-04-25T09:49:20;86389.66;;;-145.17;32.50
32759;BME280;19125;52.360;9.974;2023-04-25T09:51:58;86385.69;;;-145.17;30.93
32759;BME280;19125;52.360;9.974;2023-04-25T09:54:25;86389.66;;;-145.17;31.20
32759;BME280;19125;52.360;9.974;2023-04-25T09:56:54;86310.28;;;-145.17;30.59
32759;BME280;19125;52.360;9.974;2023-04-25T09:59:22;86314.25;;;-145.17;29.48
32759;BME280;19125;52.360;9.974;2023-04-25T10:01:49;86342.03;;;-145.17;29.55
32759;BME280;19125;52.360;9.974;2023-04-25T10:04:19;86306.31;;;-145.17;29.35
32759;BME280;19125;52.360;9.974;2023-04-25T10:06:48;86342.03;;;-145.17;28.94
32759;BME280;19125;52.360;9.974;2023-04-25T10:09:14;86346.00;;;-145.17;30.33
32759;BME280;19125;52.360;9.974;2023-04-25T10:11:40;86357.91;;;-145.17;29.90
32759;BME280;19125;52.360;9.974;2023-04-25T10:14:06;86405.53;;;-145.17;29.94
32759;BME280;19125;52.360;9.974;2023-04-25T10:16:32;86437.28;;;-145.17;30.57
32759;BME280;19125;52.360;9.974;2023-04-25T10:18:58;86451.19;;;-145.17;30.97
32759;BME280;19125;52.360;9.974;2023-04-25T10:21:24;86443.25;;;-145.17;31.43
32759;BME280;19125;52.360;9.974;2023-04-25T10:23:52;86445.25;;;-145.17;30.79
32759;BME280;19125;52.360;9.974;2023-04-25T10:26:19;86413.47;;;-145.17;30.71
32759;BME280;19125;52.360;9.974;2023-04-25T10:28:55;86437.28;;;-145.17;31.02
32759;BME280;19125;52.360;9.974;2023-04-25T10:31:22;86421.41;;;-145.17;31.50
32759;BME280;19125;52.360;9.974;2023-04-25T10:33:48;86417.44;;;-145.17;31.13
32759;BME280;19125;52.360;9.974;2023-04-25T10:36:19;86477.00;;;-145.17;31.61
32759;BME280;19125;52.360;9.974;2023-04-25T10:38:47;86486.91;;;-145.17;31.87
32759;BME280;19125;52.360;9.974;2023-04-25T10:41:13;86526.59;;;-145.17;32.34
32759;BME280;19125;52.360;9.974;2023-04-25T10:46:28;86528.59;;;-145.17;33.59
32759;BME280;19125;52.360;9.974;2023-04-25T10:48:57;86510.72;;;-145.17;33.74
32759;BME280;19125;52.360;9.974;2023-04-25T10:51:32;86504.78;;;-145.17;33.35
32759;BME280;19125;52.360;9.974;2023-04-25T10:54:02;86520.66;;;-145.17;33.43
32759;BME280;19125;52.360;9.974;2023-04-25T10:56:39;86490.88;;;-145.17;33.67
32759;BME280;19125;52.360;9.974;2023-04-25T10:59:12;86457.16;;;-145.17;34.00
32759;BME280;19125;52.360;9.974;2023-04-25T11:01:41;86512.72;;;-145.17;33.86
32759;BME280;19125;52.360;9.974;2023-04-25T11:04:30;86510.72;;;-145.17;33.21
32759;BME280;19125;52.360;9.974;2023-04-25T11:07:37;86480.97;;;-145.17;33.19
32759;BME280;19125;52.360;9.974;2023-04-25T11:10:04;86508.75;;;-145.17;32.45
32759;BME280;19125;52.360;9.974;2023-04-25T11:12:33;86498.81;;;-145.17;32.53
32759;BME280;19125;52.360;9.974;2023-04-25T11:15:06;86475.00;;;-145.17;32.01
32759;BME280;19125;52.360;9.974;2023-04-25T11:17:33;86453.16;;;-145.17;32.11
32759;BME280;19125;52.360;9.974;2023-04-25T11:19:58;86419.44;;;-145.17;31.62
32759;BME280;19125;52.360;9.974;2023-04-25T11:22:24;86403.56;;;-145.17;31.78
32759;BME280;19125;52.360;9.974;2023-04-25T11:24:51;86389.66;;;-145.17;31.57
32759;BME280;19125;52.360;9.974;2023-04-25T11:27:16;86332.13;;;-145.17;31.37
32759;BME280;19125;52.360;9.974;2023-04-25T11:29:42;86330.13;;;-145.17;31.05
32759;BME280;19125;52.360;9.974;2023-04-25T11:32:07;86361.88;;;-145.17;30.42
32759;BME280;19125;52.360;9.974;2023-04-25T11:34:33;86405.53;;;-145.17;30.48
32759;BME280;19125;52.360;9.974;2023-04-25T11:37:00;86312.28;;;-145.17;29.86
32759;BME280;19125;52.360;9.974;2023-04-25T11:39:27;86308.31;;;-145.17;29.18
32759;BME280;19125;52.360;9.974;2023-04-25T11:41:55;86286.47;;;-145.17;29.17
32759;BME280;19125;52.360;9.974;2023-04-25T11:44:21;86266.63;;;-145.17;28.73
32759;BME280;19125;52.360;9.974;2023-04-25T11:46:47;86268.63;;;-145.17;28.47
32759;BME280;19125;52.360;9.974;2023-04-25T11:49:13;86338.06;;;-145.17;28.84
32759;BME280;19125;52.360;9.974;2023-04-25T11:51:42;86385.69;;;-145.17;29.95
32759;BME280;19125;52.360;9.974;2023-04-25T11:54:08;86403.56;;;-145.17;30.65
32759;BME280;19125;52.360;9.974;2023-04-25T11:56:34;86443.25;;;-145.17;31.03
32759;BME280;19125;52.360;9.974;2023-04-25T11:59:04;86532.56;;;-145.17;33.04
32759;BME280;19125;52.360;9.974;2023-04-25T12:01:37;86576.22;;;-145.17;34.65
32759;BME280;19125;52.360;9.974;2023-04-25T12:06:41;86639.72;;;-145.17;38.27
32759;BME280;19125;52.360;9.974;2023-04-25T12:09:08;86629.81;;;-145.17;39.34
32759;BME280;19125;52.360;9.974;2023-04-25T12:11:45;86691.31;;;-145.17;39.03
32759;BME280;19125;52.360;9.974;2023-04-25T12:14:12;86643.69;;;-145.17;39.09
32759;BME280;19125;52.360;9.974;2023-04-25T12:16:46;86643.69;;;-145.17;39.24
32759;BME280;19125;52.360;9.974;2023-04-25T12:19:19;86623.84;;;-145.17;39.17
32759;BME280;19125;52.360;9.974;2023-04-25T12:21:45;86600.03;;;-145.17;38.90
32759;BME280;19125;52.360;9.974;2023-04-25T12:24:16;86588.13;;;-145.17;38.68
32759;BME280;19125;52.360;9.974;2023-04-25T12:27:03;86548.44;;;-145.17;38.02
32759;BME280;19125;52.360;9.974;2023-04-25T12:29:30;86506.75;;;-145.17;37.22
32759;BME280;19125;52.360;9.974;2023-04-25T12:31:56;86490.88;;;-145.17;37.35
32759;BME280;19125;52.360;9.974;2023-04-25T12:34:23;86401.56;;;-145.17;36.86
32759;BME280;19125;52.360;9.974;2023-04-25T12:36:49;86399.59;;;-145.17;35.50
32759;BME280;19125;52.360;9.974;2023-04-25T12:39:23;86302.34;;;-145.17;34.76
32759;BME280;19125;52.360;9.974;2023-04-25T12:41:50;86314.25;;;-145.17;33.08
32759;BME280;19125;52.360;9.974;2023-04-25T12:44:15;86262.66;;;-145.17;31.80
32759;BME280;19125;52.360;9.974;2023-04-25T12:46:41;86262.66;;;-145.17;31.25
32759;BME280;19125;52.360;9.974;2023-04-25T12:49:07;86298.38;;;-145.17;30.79